Time;durP1;ratioP1;P1;durP2;ratioP2;P2;SDS_P1;SDS_P2;PMS_P1;PMS_P2;Temp;Humidity;BMP_temperature;BMP_pressure;BME280_temperature;BME280_humidity;BME280_pressure;Samples;Min_cycle;Max_cycle;Signal;HPM_P1;HPM_P2
2021/11/19 00:01:20;;;;;;;;;;;;;;;7.08;84.49;101018.44;1657515;85;21725;-75
2021/11/19 00:03:46;;;;;;;;;;;;;;;7.07;84.58;101017.63;1651244;86;20169;-76
2021/11/19 00:06:12;;;;;;;;;;;;;;;7.05;84.65;101019.55;1650457;86;20283;-76
2021/11/19 00:08:39;;;;;;;;;;;;;;;7.04;84.72;101020.03;1650628;86;20177;-76
2021/11/19 00:11:06;;;;;;;;;;;;;;;7.04;84.80;101005.93;1650436;86;20169;-76
2021/11/19 00:13:32;;;;;;;;;;;;;;;7.04;84.87;101012.56;1656708;85;21608;-76
2021/11/19 00:15:58;;;;;;;;;;;;;;;7.04;84.95;101019.19;1650278;87;20256;-76
2021/11/19 00:18:24;;;;;;;;;;;;;;;7.04;85.01;101009.42;1650584;86;20852;-76
2021/11/19 00:20:50;;;;;;;;;;;;;;;7.05;85.08;100998.34;1643012;86;20489;-76
2021/11/19 00:23:17;;;;;;;;;;;;;;;7.06;85.17;101018.59;1652690;86;20181;-77
2021/11/19 00:25:43;;;;;;;;;;;;;;;7.03;85.20;101003.80;1652848;87;21150;-76
2021/11/19 00:28:09;;;;;;;;;;;;;;;7.03;85.30;101013.07;1652321;86;20192;-76
2021/11/19 00:30:35;;;;;;;;;;;;;;;7.05;85.38;101007.62;1652700;87;20186;-76
2021/11/19 00:33:01;;;;;;;;;;;;;;;7.04;85.42;101016.05;1652573;86;20419;-76
2021/11/19 00:35:27;;;;;;;;;;;;;;;7.04;85.47;101012.08;1652162;85;20603;-76
2021/11/19 00:37:55;;;;;;;;;;;;;;;7.05;85.54;101008.95;1652341;87;21111;-76
2021/11/19 00:40:31;;;;;;;;;;;;;;;7.06;85.58;101005.33;1651865;85;20201;-76
2021/11/19 00:42:57;;;;;;;;;;;;;;;7.07;85.65;101012.32;1652657;87;20489;-76
2021/11/19 00:45:24;;;;;;;;;;;;;;;7.08;85.71;101003.37;1652592;87;20180;-76
2021/11/19 00:47:52;;;;;;;;;;;;;;;7.10;85.78;101015.19;1653038;86;20453;-76
2021/11/19 00:50:19;;;;;;;;;;;;;;;7.09;85.83;101010.36;1632007;85;21158;-76
2021/11/19 00:52:45;;;;;;;;;;;;;;;7.09;85.90;100997.10;1633903;87;20233;-76
2021/11/19 00:55:11;;;;;;;;;;;;;;;7.10;85.94;100997.95;1652597;87;20216;-76
2021/11/19 00:57:37;;;;;;;;;;;;;;;7.10;85.99;100996.14;1639366;87;20793;-76
2021/11/19 01:00:06;;;;;;;;;;;;;;;7.10;86.04;100994.81;1649150;86;20495;-76
2021/11/19 01:02:32;;;;;;;;;;;;;;;7.12;86.09;100996.83;1652965;86;21144;-76
2021/11/19 01:04:58;;;;;;;;;;;;;;;7.13;86.14;100997.20;1652893;87;20252;-76
2021/11/19 01:07:24;;;;;;;;;;;;;;;7.14;86.17;101004.19;1652676;86;20212;-76
2021/11/19 01:09:53;;;;;;;;;;;;;;;7.16;86.21;101004.88;1657429;86;20201;-77
2021/11/19 01:12:21;;;;;;;;;;;;;;;7.18;86.25;100996.30;1652493;86;20166;-76
2021/11/19 01:14:54;;;;;;;;;;;;;;;7.20;86.29;100991.72;1652125;86;21157;-77
2021/11/19 01:17:23;;;;;;;;;;;;;;;7.20;86.32;100997.02;1652057;86;20170;-76
2021/11/19 01:20:00;;;;;;;;;;;;;;;7.21;86.35;100996.05;1652660;86;20173;-76
2021/11/19 01:22:28;;;;;;;;;;;;;;;7.23;86.39;101006.52;1652928;87;20150;-76
2021/11/19 01:24:54;;;;;;;;;;;;;;;7.23;86.42;101004.70;1652160;85;20167;-76
2021/11/19 01:27:20;;;;;;;;;;;;;;;7.25;86.47;101000.09;1652798;87;21090;-76
2021/11/19 01:29:47;;;;;;;;;;;;;;;7.27;86.49;101002.14;1652619;86;20509;-76
2021/11/19 01:32:15;;;;;;;;;;;;;;;7.26;86.54;100985.86;1652872;86;20166;-76
2021/11/19 01:34:41;;;;;;;;;;;;;;;7.26;86.58;100990.32;1652249;86;20221;-76
2021/11/19 01:37:07;;;;;;;;;;;;;;;7.26;86.59;100988.52;1652262;87;20176;-76
2021/11/19 01:39:33;;;;;;;;;;;;;;;7.26;86.62;100985.02;1651968;87;21077;-76
2021/11/19 01:42:06;;;;;;;;;;;;;;;7.26;86.66;100990.32;1652250;86;20457;-76
2021/11/19 01:44:43;;;;;;;;;;;;;;;7.25;86.70;100978.02;1652784;86;20170;-76
2021/11/19 01:47:11;;;;;;;;;;;;;;;7.24;86.73;100981.67;1634123;87;20182;-76
2021/11/19 01:49:37;;;;;;;;;;;;;;;7.23;86.76;100981.31;1652862;86;20190;-76
2021/11/19 01:52:13;;;;;;;;;;;;;;;7.23;86.82;100974.68;1652930;87;21180;-76
2021/11/19 01:54:51;;;;;;;;;;;;;;;7.23;86.87;100975.52;1652413;87;20198;-76
2021/11/19 01:57:26;;;;;;;;;;;;;;;7.24;86.89;100969.73;1651156;86;20189;-76
2021/11/19 01:59:55;;;;;;;;;;;;;;;7.25;86.94;100964.28;1652742;87;20173;-75
2021/11/19 02:02:25;;;;;;;;;;;;;;;7.27;87.00;100979.59;1652468;87;20198;-76
2021/11/19 02:04:57;;;;;;;;;;;;;;;7.26;87.05;100972.59;1652776;86;21100;-76
2021/11/19 02:07:26;;;;;;;;;;;;;;;7.26;87.08;100975.25;1652231;87;20157;-76
2021/11/19 02:09:56;;;;;;;;;;;;;;;7.26;87.14;100974.41;1646909;87;20187;-76
2021/11/19 02:13:00;;;;;;;;;;;;;;;7.27;87.17;100972.96;1646692;87;20205;-76
2021/11/19 02:15:29;;;;;;;;;;;;;;;7.27;87.22;100972.96;1647003;87;20195;-76
2021/11/19 02:17:58;;;;;;;;;;;;;;;7.30;87.26;100969.19;1647144;87;21124;-76
2021/11/19 02:20:27;;;;;;;;;;;;;;;7.31;87.32;100967.74;1645745;87;20535;-76
2021/11/19 02:22:56;;;;;;;;;;;;;;;7.33;87.33;100983.51;1646835;87;20239;-75
2021/11/19 02:25:28;;;;;;;;;;;;;;;7.35;87.36;100977.08;1646710;87;20339;-76
2021/11/19 02:27:58;;;;;;;;;;;;;;;7.39;87.41;100979.83;1645280;87;20215;-76
2021/11/19 02:30:33;;;;;;;;;;;;;;;7.41;87.46;100981.03;1645852;87;21165;-76
2021/11/19 02:33:01;;;;;;;;;;;;;;;7.43;87.48;100987.88;1646550;87;20219;-75
2021/11/19 02:35:31;;;;;;;;;;;;;;;7.45;87.52;100982.44;1647052;85;20166;-76
2021/11/19 02:37:59;;;;;;;;;;;;;;;7.47;87.52;100985.30;1653418;86;20149;-75
2021/11/19 02:40:28;;;;;;;;;;;;;;;7.49;87.57;100985.18;1633823;86;20187;-76
2021/11/19 02:43:00;;;;;;;;;;;;;;;7.51;87.60;100987.20;1653631;86;21749;-76
2021/11/19 02:45:32;;;;;;;;;;;;;;;7.50;87.62;100985.02;1652738;85;20154;-76
2021/11/19 02:47:58;;;;;;;;;;;;;;;7.52;87.62;100981.77;1653141;87;20153;-76
2021/11/19 02:50:24;;;;;;;;;;;;;;;7.55;87.64;100983.30;1653727;87;20200;-76
2021/11/19 02:52:51;;;;;;;;;;;;;;;7.59;87.69;100972.77;1653689;86;20166;-77
2021/11/19 02:55:20;;;;;;;;;;;;;;;7.63;87.72;100974.66;1652977;87;21190;-76
2021/11/19 02:57:46;;;;;;;;;;;;;;;7.69;87.75;100985.56;1653667;87;20304;-76
2021/11/19 03:00:15;;;;;;;;;;;;;;;7.70;87.76;100981.95;1653324;86;20219;-76
2021/11/19 03:02:41;;;;;;;;;;;;;;;7.69;87.80;100975.43;1651233;86;20165;-76
2021/11/19 03:05:13;;;;;;;;;;;;;;;7.67;87.80;100977.40;1651471;86;20177;-76
2021/11/19 03:07:39;;;;;;;;;;;;;;;7.67;87.81;100982.19;1651444;87;21154;-76
2021/11/19 03:10:14;;;;;;;;;;;;;;;7.66;87.85;100973.90;1651502;87;20204;-77
2021/11/19 03:12:40;;;;;;;;;;;;;;;7.66;87.88;100974.38;1650005;85;20191;-76
2021/11/19 03:15:12;;;;;;;;;;;;;;;7.66;87.91;100983.67;1651589;86;20777;-76
2021/11/19 03:17:38;;;;;;;;;;;;;;;7.64;87.93;100989.59;1651732;86;20201;-76
2021/11/19 03:20:05;;;;;;;;;;;;;;;7.65;87.95;100984.64;1651495;87;21985;-76
2021/11/19 03:22:31;;;;;;;;;;;;;;;7.66;87.98;100992.96;1651399;87;20274;-76
2021/11/19 03:24:57;;;;;;;;;;;;;;;7.65;88.01;100980.66;1651379;86;20760;-76
2021/11/19 03:27:24;;;;;;;;;;;;;;;7.65;88.02;100985.97;1651531;87;20473;-76
2021/11/19 03:29:50;;;;;;;;;;;;;;;7.66;88.03;100986.33;1651530;86;20154;-76
2021/11/19 03:32:19;;;;;;;;;;;;;;;7.67;88.07;100985.36;1651465;87;20701;-77
2021/11/19 03:34:45;;;;;;;;;;;;;;;7.69;88.09;100988.70;1651290;86;20161;-76
2021/11/19 03:37:10;;;;;;;;;;;;;;;7.69;88.13;100971.45;1651320;86;20188;-76
2021/11/19 03:39:37;;;;;;;;;;;;;;;7.68;88.15;100975.91;1651313;85;20177;-76
2021/11/19 03:42:03;;;;;;;;;;;;;;;7.70;88.17;100970.48;1651290;86;20170;-76
2021/11/19 03:44:36;;;;;;;;;;;;;;;7.70;88.21;100974.47;1651558;86;21136;-76
2021/11/19 03:47:07;;;;;;;;;;;;;;;7.71;88.23;100980.10;1651056;85;20479;-76
2021/11/19 03:49:33;;;;;;;;;;;;;;;7.70;88.27;100972.66;1651535;87;20217;-76
2021/11/19 03:52:08;;;;;;;;;;;;;;;7.72;88.30;100981.79;1651139;86;20706;-76
2021/11/19 03:54:35;;;;;;;;;;;;;;;7.73;88.33;100987.46;1649763;85;20177;-76
2021/11/19 03:57:01;;;;;;;;;;;;;;;7.73;88.36;100980.83;1651462;86;21508;-77
2021/11/19 03:59:27;;;;;;;;;;;;;;;7.74;88.37;100970.56;1651551;87;20220;-77
2021/11/19 04:01:54;;;;;;;;;;;;;;;7.75;88.40;100967.75;1651455;86;20154;-77
2021/11/19 04:04:21;;;;;;;;;;;;;;;7.77;88.41;100962.32;1651507;86;20222;-75
2021/11/19 04:06:47;;;;;;;;;;;;;;;7.77;88.44;100978.25;1651546;87;20189;-75
2021/11/19 04:09:13;;;;;;;;;;;;;;;7.79;88.47;100974.47;1651528;87;21119;-75
2021/11/19 04:11:39;;;;;;;;;;;;;;;7.79;88.49;100965.66;1651410;86;20271;-75
2021/11/19 04:14:05;;;;;;;;;;;;;;;7.80;88.51;100970.84;1651553;86;20812;-75
2021/11/19 04:16:34;;;;;;;;;;;;;;;7.81;88.54;100970.36;1651629;86;20153;-75
2021/11/19 04:19:00;;;;;;;;;;;;;;;7.82;88.57;100978.66;1651762;85;20173;-75
2021/11/19 04:21:27;;;;;;;;;;;;;;;7.82;88.58;100979.50;1651290;87;21846;-75
2021/11/19 04:23:53;;;;;;;;;;;;;;;7.84;88.61;100977.56;1651554;86;20150;-75
2021/11/19 04:26:20;;;;;;;;;;;;;;;7.86;88.62;100980.06;1651535;86;20191;-75
2021/11/19 04:28:46;;;;;;;;;;;;;;;7.86;88.66;100987.55;1651491;86;20409;-75
2021/11/19 04:31:13;;;;;;;;;;;;;;;7.87;88.68;100978.61;1651577;86;20190;-75
2021/11/19 04:33:39;;;;;;;;;;;;;;;7.90;88.71;100979.66;1651469;87;21982;-75
2021/11/19 04:36:05;;;;;;;;;;;;;;;7.92;88.72;100988.80;1651435;86;20315;-75
2021/11/19 04:38:31;;;;;;;;;;;;;;;7.94;88.75;100986.37;1651436;85;20196;-75
2021/11/19 04:40:57;;;;;;;;;;;;;;;7.96;88.77;100991.05;1651564;86;20150;-75
2021/11/19 04:43:23;;;;;;;;;;;;;;;7.96;88.79;100985.73;1651463;87;20329;-74
2021/11/19 04:45:49;;;;;;;;;;;;;;;7.97;88.82;100978.61;1651254;86;22218;-75
2021/11/19 04:48:15;;;;;;;;;;;;;;;7.98;88.83;100977.64;1651481;87;20502;-75
2021/11/19 04:50:44;;;;;;;;;;;;;;;7.99;88.86;100975.31;1651761;86;20284;-75
2021/11/19 04:53:11;;;;;;;;;;;;;;;8.00;88.85;100978.33;1652125;86;20191;-75
2021/11/19 04:55:37;;;;;;;;;;;;;;;8.03;88.88;100974.06;1651633;86;20166;-75
2021/11/19 04:58:03;;;;;;;;;;;;;;;8.06;88.89;100971.64;1632503;87;21244;-75
2021/11/19 05:00:36;;;;;;;;;;;;;;;8.06;88.93;100976.44;1651278;86;20161;-74
2021/11/19 05:03:00;;;;;;;;;;;;;;;8.07;88.94;100966.16;1661935;86;20192;-75
2021/11/19 05:05:26;;;;;;;;;;;;;;;8.09;88.96;100971.36;1667523;85;20480;-75
2021/11/19 05:07:52;;;;;;;;;;;;;;;8.12;88.96;100965.76;1667352;85;20179;-75
2021/11/19 05:10:18;;;;;;;;;;;;;;;8.15;89.01;100966.31;1667597;86;21165;-75
2021/11/19 05:12:47;;;;;;;;;;;;;;;8.19;89.02;100974.84;1667498;86;20163;-75
2021/11/19 05:15:13;;;;;;;;;;;;;;;8.19;89.04;100964.22;1667653;86;20180;-75
2021/11/19 05:17:38;;;;;;;;;;;;;;;8.20;89.03;100957.41;1667596;85;20175;-75
2021/11/19 05:20:06;;;;;;;;;;;;;;;8.22;89.06;100966.10;1667391;86;20171;-75
2021/11/19 05:22:32;;;;;;;;;;;;;;;8.24;89.08;100970.77;1650427;86;20813;-76
2021/11/19 05:24:58;;;;;;;;;;;;;;;8.26;89.09;100975.95;1646644;86;20213;-76
2021/11/19 05:27:24;;;;;;;;;;;;;;;8.27;89.09;100984.28;1646437;87;20170;-76
2021/11/19 05:29:50;;;;;;;;;;;;;;;8.28;89.10;100983.28;1646411;86;20189;-76
2021/11/19 05:32:16;;;;;;;;;;;;;;;8.32;89.11;100996.67;1646521;87;20780;-77
2021/11/19 05:34:43;;;;;;;;;;;;;;;8.33;89.13;100995.22;1646117;87;21179;-77
2021/11/19 05:37:10;;;;;;;;;;;;;;;8.33;89.13;100996.55;1646287;86;20427;-76
2021/11/19 05:39:36;;;;;;;;;;;;;;;8.34;89.14;100982.26;1646347;87;20183;-76
2021/11/19 05:42:04;;;;;;;;;;;;;;;8.35;89.13;100982.62;1646339;87;20201;-76
2021/11/19 05:44:31;;;;;;;;;;;;;;;8.37;89.15;100992.61;1657563;86;20220;-77
2021/11/19 05:46:57;;;;;;;;;;;;;;;8.38;89.16;100986.32;1667290;86;21141;-77
2021/11/19 05:49:23;;;;;;;;;;;;;;;8.41;89.15;100986.03;1667417;85;20238;-77
2021/11/19 05:51:50;;;;;;;;;;;;;;;8.42;89.16;100993.03;1667270;85;20172;-76
2021/11/19 05:54:18;;;;;;;;;;;;;;;8.45;89.17;100995.41;1627272;87;20204;-76
2021/11/19 05:56:44;;;;;;;;;;;;;;;8.45;89.17;101008.69;1627117;88;20499;-76
2021/11/19 05:59:10;;;;;;;;;;;;;;;8.48;89.18;101010.22;1627239;87;21084;-76
2021/11/19 06:01:36;;;;;;;;;;;;;;;8.49;89.18;101004.77;1626967;88;20177;-76
2021/11/19 06:04:02;;;;;;;;;;;;;;;8.52;89.18;101015.12;1626932;88;20266;-75
2021/11/19 06:06:28;;;;;;;;;;;;;;;8.53;89.20;101015.96;1646813;86;20179;-76
2021/11/19 06:08:54;;;;;;;;;;;;;;;8.53;89.21;101016.81;1646356;86;20181;-77
2021/11/19 06:11:28;;;;;;;;;;;;;;;8.55;89.20;101017.98;1646249;87;21852;-77
2021/11/19 06:14:00;;;;;;;;;;;;;;;8.58;89.21;101023.04;1654392;86;20152;-77
2021/11/19 06:16:30;;;;;;;;;;;;;;;8.58;89.22;101021.70;1667190;86;20223;-76
2021/11/19 06:18:59;;;;;;;;;;;;;;;8.61;89.20;101027.22;1667441;86;20590;-76
2021/11/19 06:21:27;;;;;;;;;;;;;;;8.61;89.22;101018.77;1667462;85;20157;-76
2021/11/19 06:23:55;;;;;;;;;;;;;;;8.62;89.22;101020.94;1667604;85;21134;-76
2021/11/19 06:26:23;;;;;;;;;;;;;;;8.63;89.22;101023.92;1667560;85;20550;-77
2021/11/19 06:28:51;;;;;;;;;;;;;;;8.62;89.23;101020.94;1667591;85;20164;-76
2021/11/19 06:31:19;;;;;;;;;;;;;;;8.63;89.22;101029.23;1665343;86;20152;-76
2021/11/19 06:33:45;;;;;;;;;;;;;;;8.63;89.23;101033.23;1646400;87;20194;-76
2021/11/19 06:36:11;;;;;;;;;;;;;;;8.65;89.25;101031.28;1646248;87;21146;-76
2021/11/19 06:38:37;;;;;;;;;;;;;;;8.66;89.22;101031.61;1647949;86;20243;-76
2021/11/19 06:41:03;;;;;;;;;;;;;;;8.68;89.25;101040.30;1646310;86;20220;-77
2021/11/19 06:43:29;;;;;;;;;;;;;;;8.69;89.25;101033.49;1646425;86;20466;-76
2021/11/19 06:45:54;;;;;;;;;;;;;;;8.72;89.26;101039.04;1646160;87;20849;-76
2021/11/19 06:48:20;;;;;;;;;;;;;;;8.73;89.25;101036.70;1646311;87;21151;-77
2021/11/19 06:50:46;;;;;;;;;;;;;;;8.73;89.26;101046.02;1646222;86;20199;-78
2021/11/19 06:53:12;;;;;;;;;;;;;;;8.74;89.27;101043.22;1646877;86;20244;-77
2021/11/19 06:55:38;;;;;;;;;;;;;;;8.76;89.26;101045.75;1653568;86;20169;-77
2021/11/19 06:58:04;;;;;;;;;;;;;;;8.76;89.27;101044.42;1653392;86;20189;-75
2021/11/19 07:00:33;;;;;;;;;;;;;;;8.78;89.27;101047.77;1653641;86;21157;-76
2021/11/19 07:02:59;;;;;;;;;;;;;;;8.79;89.28;101048.13;1650938;86;20142;-76
2021/11/19 07:05:26;;;;;;;;;;;;;;;8.80;89.28;101053.28;1619540;88;20228;-76
2021/11/19 07:07:52;;;;;;;;;;;;;;;8.81;89.28;101060.78;1624115;87;20181;-77
2021/11/19 07:10:20;;;;;;;;;;;;;;;8.82;89.29;101064.64;1613738;88;20433;-78
2021/11/19 07:12:46;;;;;;;;;;;;;;;8.82;89.27;101066.45;1612578;87;21187;-76
2021/11/19 07:15:13;;;;;;;;;;;;;;;8.82;89.27;101067.78;1592374;88;20328;-76
2021/11/19 07:17:38;;;;;;;;;;;;;;;8.84;89.29;101061.81;1596589;89;20271;-77
2021/11/19 07:20:05;;;;;;;;;;;;;;;8.82;89.29;101050.50;1601022;89;20199;-76
2021/11/19 07:22:32;;;;;;;;;;;;;;;8.83;89.29;101052.19;1600469;89;20230;-77
2021/11/19 07:24:58;;;;;;;;;;;;;;;8.83;89.28;101056.17;1627775;88;21100;-77
2021/11/19 07:27:24;;;;;;;;;;;;;;;8.83;89.28;101059.64;1619423;88;20263;-76
2021/11/19 07:29:50;;;;;;;;;;;;;;;8.84;89.30;101061.81;1596995;88;20228;-77
2021/11/19 07:32:15;;;;;;;;;;;;;;;8.86;89.28;101061.20;1609830;89;20201;-80
2021/11/19 07:34:41;;;;;;;;;;;;;;;8.86;89.29;101067.85;1609448;89;20253;-77
2021/11/19 07:37:07;;;;;;;;;;;;;;;8.86;89.30;101057.22;1597318;89;21189;-76
2021/11/19 07:39:33;;;;;;;;;;;;;;;8.89;89.32;101074.21;1577232;89;20264;-77
2021/11/19 07:41:59;;;;;;;;;;;;;;;8.90;89.33;101069.25;1591286;89;20282;-75
2021/11/19 07:44:25;;;;;;;;;;;;;;;8.90;89.32;101071.91;1609902;88;20235;-75
2021/11/19 07:46:51;;;;;;;;;;;;;;;8.90;89.32;101073.23;1601582;87;20185;-77
2021/11/19 07:49:16;;;;;;;;;;;;;;;8.91;89.35;101079.73;1592001;90;21744;-76
2021/11/19 07:51:45;;;;;;;;;;;;;;;8.91;89.35;101074.41;1608615;88;20214;-77
2021/11/19 07:54:11;;;;;;;;;;;;;;;8.94;89.35;101070.61;1615157;87;20153;-76
2021/11/19 07:56:37;;;;;;;;;;;;;;;8.96;89.35;101076.65;1598215;89;20211;-76
2021/11/19 07:59:07;;;;;;;;;;;;;;;8.98;89.36;101078.66;1596417;89;20213;-76
2021/11/19 08:01:33;;;;;;;;;;;;;;;9.00;89.35;101076.72;1604370;88;21245;-76
2021/11/19 08:03:59;;;;;;;;;;;;;;;9.02;89.36;101071.59;1573641;88;20313;-77
2021/11/19 08:06:26;;;;;;;;;;;;;;;9.03;89.37;101082.59;1570251;90;20303;-76
2021/11/19 08:08:52;;;;;;;;;;;;;;;9.06;89.38;101086.78;1567738;89;20431;-76
2021/11/19 08:11:18;;;;;;;;;;;;;;;9.07;89.38;101080.97;1567171;91;20240;-76
2021/11/19 08:13:44;;;;;;;;;;;;;;;9.10;89.38;101092.16;1572471;90;21161;-76
2021/11/19 08:16:10;;;;;;;;;;;;;;;9.10;89.38;101086.00;1572293;90;20269;-76
2021/11/19 08:18:40;;;;;;;;;;;;;;;9.11;89.38;101094.34;1570285;91;20205;-76
2021/11/19 08:21:07;;;;;;;;;;;;;;;9.11;89.37;101096.52;1569729;90;20226;-76
2021/11/19 08:23:38;;;;;;;;;;;;;;;9.12;89.38;101090.19;1579267;89;20207;-76
2021/11/19 08:26:07;;;;;;;;;;;;;;;9.13;89.35;101093.69;1571600;90;21146;-76
2021/11/19 08:28:33;;;;;;;;;;;;;;;9.14;89.36;101096.22;1574860;90;20166;-76
2021/11/19 08:31:00;;;;;;;;;;;;;;;9.16;89.36;101083.59;1589213;89;20201;-76
2021/11/19 08:33:26;;;;;;;;;;;;;;;9.17;89.34;101090.61;1592085;90;20173;-76
2021/11/19 08:35:51;;;;;;;;;;;;;;;9.19;89.35;101084.64;1592676;90;20185;-76
2021/11/19 08:38:19;;;;;;;;;;;;;;;9.19;89.33;101091.77;1592232;89;21865;-76
2021/11/19 08:40:46;;;;;;;;;;;;;;;9.19;89.33;101099.27;1573660;89;20189;-76
2021/11/19 08:43:18;;;;;;;;;;;;;;;9.20;89.34;101096.97;1574459;89;20511;-76
2021/11/19 08:45:44;;;;;;;;;;;;;;;9.21;89.33;101102.65;1572898;89;20191;-76
2021/11/19 08:48:10;;;;;;;;;;;;;;;9.22;89.32;101098.98;1571776;90;20225;-77
2021/11/19 08:50:39;;;;;;;;;;;;;;;9.25;89.31;101101.38;1548978;92;21817;-76
2021/11/19 08:53:07;;;;;;;;;;;;;;;9.26;89.30;101103.03;1562762;90;20162;-77
2021/11/19 08:55:33;;;;;;;;;;;;;;;9.28;89.30;101099.76;1559249;91;20254;-77
2021/11/19 08:57:59;;;;;;;;;;;;;;;9.30;89.27;101095.11;1544203;92;20210;-76
2021/11/19 09:00:28;;;;;;;;;;;;;;;9.33;89.28;101088.17;1566972;90;20208;-77
2021/11/19 09:02:57;;;;;;;;;;;;;;;9.37;89.27;101089.56;1574743;88;21938;-77
2021/11/19 09:05:25;;;;;;;;;;;;;;;9.39;89.24;101087.58;1612067;88;20496;-78
2021/11/19 09:07:51;;;;;;;;;;;;;;;9.41;89.24;101094.95;1651377;84;20171;-77
2021/11/19 09:10:17;;;;;;;;;;;;;;;9.42;89.23;101093.97;1644412;85;20648;-78
2021/11/19 09:12:43;;;;;;;;;;;;;;;9.45;89.22;101092.34;1650302;84;20159;-78
2021/11/19 09:15:11;;;;;;;;;;;;;;;9.46;89.21;101091.34;1661590;84;21156;-78
2021/11/19 09:18:13;;;;;;;;;;;;;;;9.49;89.20;101090.23;1650403;85;20170;-78
2021/11/19 09:21:06;;;;;;;;;;;;;;;9.50;89.19;101082.56;1648448;87;20166;-78
2021/11/19 09:23:36;;;;;;;;;;;;;;;9.51;89.16;101082.44;1648427;87;20253;-77
2021/11/19 09:26:08;;;;;;;;;;;;;;;9.54;89.14;101080.80;1648040;87;20225;-77
2021/11/19 09:28:36;;;;;;;;;;;;;;;9.56;89.15;101071.84;1648633;87;21792;-78
2021/11/19 09:31:02;;;;;;;;;;;;;;;9.58;89.13;101076.52;1661716;85;20187;-77
2021/11/19 09:33:28;;;;;;;;;;;;;;;9.57;89.13;101080.19;1669666;85;20475;-78
2021/11/19 09:35:56;;;;;;;;;;;;;;;9.62;89.11;101079.23;1647689;87;20278;-78
2021/11/19 09:38:23;;;;;;;;;;;;;;;9.64;89.10;101074.09;1648671;87;20530;-78
2021/11/19 09:41:03;;;;;;;;;;;;;;;9.68;89.11;101068.83;1647508;87;21858;-78
2021/11/19 09:43:36;;;;;;;;;;;;;;;9.74;89.07;101060.75;1648271;87;20214;-77
2021/11/19 09:46:11;;;;;;;;;;;;;;;9.76;89.06;101065.42;1630444;87;20223;-77
2021/11/19 09:48:52;;;;;;;;;;;;;;;9.76;89.06;101063.61;1648149;87;20229;-77
2021/11/19 09:51:46;;;;;;;;;;;;;;;9.80;89.06;101078.80;1631560;87;20438;-78
2021/11/19 09:54:35;;;;;;;;;;;;;;;9.83;89.05;101074.50;1644928;85;22214;-75
2021/11/19 09:57:08;;;;;;;;;;;;;;;9.83;88.99;101058.03;1654329;85;20168;-75
2021/11/19 09:59:49;;;;;;;;;;;;;;;9.85;88.97;101055.23;1643257;85;20195;-76
2021/11/19 10:02:47;;;;;;;;;;;;;;;9.87;88.96;101047.42;1648918;84;20211;-75
2021/11/19 10:05:23;;;;;;;;;;;;;;;9.91;88.92;101051.47;1661693;84;20197;-75
2021/11/19 10:08:05;;;;;;;;;;;;;;;9.96;88.88;101039.02;1661881;84;21130;-76
2021/11/19 10:10:37;;;;;;;;;;;;;;;9.98;88.87;101032.56;1668990;84;20207;-74
2021/11/19 10:13:07;;;;;;;;;;;;;;;10.00;88.83;101025.73;1662994;84;20181;-72
2021/11/19 10:15:56;;;;;;;;;;;;;;;10.00;88.75;101035.91;1650274;84;21987;-74
2021/11/19 10:18:34;;;;;;;;;;;;;;;10.02;88.69;101039.77;1659942;84;20465;-76
2021/11/19 10:21:04;;;;;;;;;;;;;;;10.04;88.68;101053.77;1665664;84;21109;-76
2021/11/19 10:23:36;;;;;;;;;;;;;;;10.08;88.63;101036.98;1660973;84;20196;-76
2021/11/19 10:26:05;;;;;;;;;;;;;;;10.11;88.58;101038.84;1675699;84;20171;-76
2021/11/19 10:28:40;;;;;;;;;;;;;;;10.10;88.55;101039.83;1669607;84;20201;-76
2021/11/19 10:31:08;;;;;;;;;;;;;;;10.10;88.52;101029.16;1669726;84;20178;-76
2021/11/19 10:33:40;;;;;;;;;;;;;;;10.10;88.46;101053.15;1637126;84;21176;-76
2021/11/19 10:36:13;;;;;;;;;;;;;;;10.11;88.45;101065.50;1667071;84;20170;-75
2021/11/19 10:38:46;;;;;;;;;;;;;;;10.12;88.44;101053.86;1667930;84;20474;-74
2021/11/19 10:41:47;;;;;;;;;;;;;;;10.11;88.39;101040.67;1666383;84;20165;-76
2021/11/19 10:44:38;;;;;;;;;;;;;;;10.10;88.37;101047.01;1589300;89;20243;-75
2021/11/19 10:47:17;;;;;;;;;;;;;;;10.10;88.35;101045.16;1598453;87;21282;-76
2021/11/19 10:50:18;;;;;;;;;;;;;;;10.11;88.29;101048.66;1668468;84;20214;-76
2021/11/19 10:53:16;;;;;;;;;;;;;;;10.12;88.27;101051.19;1663257;84;20205;-76
2021/11/19 10:56:07;;;;;;;;;;;;;;;10.11;88.24;101046.84;1664228;84;21161;-74
2021/11/19 10:58:49;;;;;;;;;;;;;;;10.16;88.21;101045.09;1664623;84;20166;-75
2021/11/19 11:01:36;;;;;;;;;;;;;;;10.17;88.18;101038.27;1664354;84;21030;-75
2021/11/19 11:04:18;;;;;;;;;;;;;;;10.18;88.16;101038.62;1652447;84;20166;-75
2021/11/19 11:06:52;;;;;;;;;;;;;;;10.16;88.13;101036.61;1647765;85;20194;-75
2021/11/19 11:09:20;;;;;;;;;;;;;;;10.15;88.09;101030.92;1650300;85;20351;-76
2021/11/19 11:11:53;;;;;;;;;;;;;;;10.15;88.05;101045.59;1652716;85;20160;-75
2021/11/19 11:14:19;;;;;;;;;;;;;;;10.15;88.05;101040.26;1657868;85;21098;-75
2021/11/19 11:16:46;;;;;;;;;;;;;;;10.13;88.05;101042.22;1650836;85;20502;-74
2021/11/19 11:19:19;;;;;;;;;;;;;;;10.15;88.02;101038.08;1655316;85;20193;-72
2021/11/19 11:21:54;;;;;;;;;;;;;;;10.13;88.00;101032.89;1630598;85;20492;-75
2021/11/19 11:24:30;;;;;;;;;;;;;;;10.12;87.99;101031.70;1628646;87;20489;-74
2021/11/19 11:27:18;;;;;;;;;;;;;;;10.12;87.98;101037.87;1654213;85;21297;-74
2021/11/19 11:29:59;;;;;;;;;;;;;;;10.13;87.96;101035.55;1639049;85;20159;-73
2021/11/19 11:32:43;;;;;;;;;;;;;;;10.13;87.95;101032.89;1655961;85;20510;-74
2021/11/19 11:35:21;;;;;;;;;;;;;;;10.14;87.93;101041.23;1652757;87;20488;-73
2021/11/19 11:37:57;;;;;;;;;;;;;;;10.14;87.91;101049.23;1651933;86;20480;-74
2021/11/19 11:40:35;;;;;;;;;;;;;;;10.14;87.89;101041.23;1652644;87;21152;-74
2021/11/19 11:43:29;;;;;;;;;;;;;;;10.15;87.87;101044.74;1664939;85;20181;-74
2021/11/19 11:45:57;;;;;;;;;;;;;;;10.13;87.86;101040.88;1651442;85;20163;-74
2021/11/19 11:48:38;;;;;;;;;;;;;;;10.10;87.86;101029.16;1667086;86;20390;-74
2021/11/19 11:51:14;;;;;;;;;;;;;;;10.10;87.85;101041.68;1667488;86;20412;-74
2021/11/19 11:54:03;;;;;;;;;;;;;;;10.08;87.84;101035.16;1666962;85;21026;-74
2021/11/19 11:56:32;;;;;;;;;;;;;;;10.08;87.85;101033.82;1667340;85;20496;-74
2021/11/19 11:59:02;;;;;;;;;;;;;;;10.07;87.84;101037.95;1667324;86;20172;-74
2021/11/19 12:01:49;;;;;;;;;;;;;;;10.05;87.84;101034.13;1667063;86;20195;-73
2021/11/19 12:04:25;;;;;;;;;;;;;;;10.07;87.89;101032.14;1670264;86;20479;-73
2021/11/19 12:07:10;;;;;;;;;;;;;;;10.07;87.89;101038.80;1663174;85;21086;-73
2021/11/19 12:09:47;;;;;;;;;;;;;;;10.07;87.92;101040.13;1663249;85;20160;-74
2021/11/19 12:12:32;;;;;;;;;;;;;;;10.08;87.90;101038.31;1647010;86;20465;-74
2021/11/19 12:15:19;;;;;;;;;;;;;;;10.08;87.91;101032.98;1662793;86;20169;-74
2021/11/19 12:17:55;;;;;;;;;;;;;;;10.08;87.95;101038.31;1663308;86;20180;-74
2021/11/19 12:20:27;;;;;;;;;;;;;;;10.08;87.97;101040.97;1663185;86;21167;-74
2021/11/19 12:23:06;;;;;;;;;;;;;;;10.09;87.98;101040.84;1662882;86;20173;-74
2021/11/19 12:25:42;;;;;;;;;;;;;;;10.10;88.01;101034.50;1663139;86;20169;-73
2021/11/19 12:28:13;;;;;;;;;;;;;;;10.07;88.01;101030.80;1663313;86;20446;-73
2021/11/19 12:31:06;;;;;;;;;;;;;;;10.05;88.03;101034.13;1645196;86;20538;-74
2021/11/19 12:33:38;;;;;;;;;;;;;;;10.04;88.05;101025.78;1663098;86;21237;-73
2021/11/19 12:36:13;;;;;;;;;;;;;;;10.04;88.06;101029.78;1663222;86;20196;-73
2021/11/19 12:38:42;;;;;;;;;;;;;;;10.03;88.09;101030.76;1663284;85;20173;-74
2021/11/19 12:41:42;;;;;;;;;;;;;;;10.01;88.11;101030.09;1662284;86;20587;-73
2021/11/19 12:44:32;;;;;;;;;;;;;;;10.03;88.15;101041.42;1615858;87;20169;-73
2021/11/19 12:47:11;;;;;;;;;;;;;;;10.03;88.17;101034.75;1615680;89;21148;-74
2021/11/19 12:50:07;;;;;;;;;;;;;;;10.01;88.19;101022.09;1589566;89;20168;-73
2021/11/19 12:52:37;;;;;;;;;;;;;;;10.02;88.23;101032.61;1571410;91;20196;-74
2021/11/19 12:55:30;;;;;;;;;;;;;;;10.02;88.29;101023.78;1569257;91;20458;-74
2021/11/19 12:58:27;;;;;;;;;;;;;;;10.01;88.30;101028.75;1591601;88;20595;-74
2021/11/19 13:01:15;;;;;;;;;;;;;;;10.01;88.33;101031.41;1602333;89;21177;-74
2021/11/19 13:03:54;;;;;;;;;;;;;;;9.99;88.38;101029.41;1601788;88;20172;-74